Terminal Aerodrome Forecast
Issued by NWS

Home | Current Version | Previous Version | Text Only | Print | Product List | Glossary On
Versions: 1 2 3 4 5 6 7 8 9 10 11 12 13 14 15 16 17 18
000
FTUS46 KSGX 221100
TAFSNA
TAF
KSNA 221123Z 2212/2312 VRB05KT P6SM SCT012
      TEMPO 2213/2215 BKN012
     FM221900 22009KT P6SM SKC
     FM230300 20005KT P6SM FEW010
     FM231000 VRB04KT P6SM BKN010=

USA.gov is the U.S. government's official web portal to all federal, state and local government web resources and services.